Time;durP1;ratioP1;P1;durP2;ratioP2;P2;SDS_P1;SDS_P2;PMS_P1;PMS_P2;Temp;Humidity;BMP_temperature;BMP_pressure;BME280_temperature;BME280_humidity;BME280_pressure;Samples;Min_cycle;Max_cycle;Signal;HPM_P1;HPM_P2
2023/06/15 00:00:20;;;;;;;1.90;1.63;;;;;;;;;;8319205;28;20025;-61
2023/06/15 00:04:21;;;;;;;4.97;1.93;;;;;;;;;;8322582;28;20021;-60
2023/06/15 00:08:21;;;;;;;1.80;1.70;;;;;;;;;;8322304;28;20359;-60
2023/06/15 00:12:23;;;;;;;1.90;1.80;;;;;;;;;;8320858;28;20147;-60
2023/06/15 00:16:23;;;;;;;1.77;1.60;;;;;;;;;;8321862;28;20040;-60
2023/06/15 00:20:28;;;;;;;2.80;2.00;;;;;;;;;;8322431;28;20066;-60
2023/06/15 00:24:28;;;;;;;3.25;2.17;;;;;;;;;;8317485;28;20025;-60
2023/06/15 00:28:28;;;;;;;2.22;2.03;;;;;;;;;;8319539;28;20047;-60
2023/06/15 00:32:29;;;;;;;2.65;1.83;;;;;;;;;;8318027;28;20456;-60
2023/06/15 00:36:29;;;;;;;3.38;1.80;;;;;;;;;;8321116;28;20029;-60
2023/06/15 00:40:29;;;;;;;5.33;1.90;;;;;;;;;;8321418;28;20032;-60
2023/06/15 00:44:29;;;;;;;3.83;1.80;;;;;;;;;;8319007;28;20159;-60
2023/06/15 00:48:30;;;;;;;2.28;1.55;;;;;;;;;;8319184;28;20036;-60
2023/06/15 00:52:31;;;;;;;1.90;1.70;;;;;;;;;;8319355;28;20016;-60
2023/06/15 00:56:31;;;;;;;1.85;1.70;;;;;;;;;;8320890;28;20071;-60
2023/06/15 01:00:36;;;;;;;3.00;1.80;;;;;;;;;;8321192;28;20152;-61
2023/06/15 01:04:36;;;;;;;3.17;1.70;;;;;;;;;;8318277;28;20126;-60
2023/06/15 01:08:37;;;;;;;3.60;1.80;;;;;;;;;;8319830;28;20025;-60
2023/06/15 01:12:40;;;;;;;3.15;1.85;;;;;;;;;;8320106;28;20316;-60
2023/06/15 01:16:43;;;;;;;2.00;1.80;;;;;;;;;;8319051;28;20041;-61
2023/06/15 01:20:44;;;;;;;2.13;1.87;;;;;;;;;;8320430;28;20020;-60
2023/06/15 01:24:50;;;;;;;2.00;1.80;;;;;;;;;;8320660;28;20021;-61
2023/06/15 01:28:50;;;;;;;1.77;1.60;;;;;;;;;;8317760;28;20021;-60
2023/06/15 01:32:50;;;;;;;4.65;1.60;;;;;;;;;;8319650;28;20445;-61
2023/06/15 01:36:51;;;;;;;2.05;1.85;;;;;;;;;;8318469;28;20029;-60
2023/06/15 01:40:51;;;;;;;2.50;1.52;;;;;;;;;;8318134;28;20541;-60
2023/06/15 01:44:53;;;;;;;1.85;1.73;;;;;;;;;;8318945;28;20068;-60
2023/06/15 01:48:53;;;;;;;1.80;1.70;;;;;;;;;;8315026;28;20037;-60
2023/06/15 01:52:53;;;;;;;2.00;1.50;;;;;;;;;;8319493;28;20104;-60
2023/06/15 01:56:53;;;;;;;2.08;1.70;;;;;;;;;;8315845;28;20029;-61
2023/06/15 02:00:54;;;;;;;1.90;1.80;;;;;;;;;;8316486;28;20064;-60
2023/06/15 02:04:54;;;;;;;2.92;1.83;;;;;;;;;;8318857;28;20284;-60
2023/06/15 02:08:55;;;;;;;3.47;2.10;;;;;;;;;;8317774;28;20497;-60
2023/06/15 02:12:56;;;;;;;3.38;1.75;;;;;;;;;;8317665;28;20943;-60
2023/06/15 02:16:56;;;;;;;2.60;1.60;;;;;;;;;;8318639;28;21089;-60
2023/06/15 02:20:57;;;;;;;1.50;1.40;;;;;;;;;;8316940;28;20023;-60
2023/06/15 02:24:57;;;;;;;3.50;1.67;;;;;;;;;;8315798;28;20410;-61
2023/06/15 02:28:57;;;;;;;1.95;1.80;;;;;;;;;;8318778;28;20024;-60
2023/06/15 02:33:00;;;;;;;3.33;1.60;;;;;;;;;;8316770;28;20659;-61
2023/06/15 02:37:00;;;;;;;2.72;1.90;;;;;;;;;;8316762;28;20118;-60
2023/06/15 02:41:00;;;;;;;1.70;1.60;;;;;;;;;;8318714;28;20025;-60
2023/06/15 02:45:02;;;;;;;2.17;1.83;;;;;;;;;;8318581;28;20033;-60
2023/06/15 02:49:03;;;;;;;2.47;1.98;;;;;;;;;;8317255;28;20061;-60
2023/06/15 02:53:03;;;;;;;2.72;1.90;;;;;;;;;;8316564;28;20061;-60
2023/06/15 02:57:06;;;;;;;1.98;1.77;;;;;;;;;;8318092;28;20029;-60
2023/06/15 03:01:07;;;;;;;2.80;1.75;;;;;;;;;;8318139;28;20769;-60
2023/06/15 03:05:09;;;;;;;2.83;1.90;;;;;;;;;;8316360;28;20037;-60
2023/06/15 03:09:09;;;;;;;2.97;2.00;;;;;;;;;;8314253;28;20530;-60
2023/06/15 03:13:09;;;;;;;1.80;1.70;;;;;;;;;;8316143;28;20095;-60
2023/06/15 03:17:11;;;;;;;4.35;1.83;;;;;;;;;;8315898;28;20041;-60
2023/06/15 03:21:12;;;;;;;2.00;1.70;;;;;;;;;;8317802;28;20650;-60
2023/06/15 03:25:13;;;;;;;2.08;1.90;;;;;;;;;;8322614;28;20036;-60
2023/06/15 03:29:14;;;;;;;1.80;1.70;;;;;;;;;;8322769;28;20039;-60
2023/06/15 03:33:16;;;;;;;1.70;1.58;;;;;;;;;;8324054;28;20039;-61
2023/06/15 03:37:16;;;;;;;2.00;1.90;;;;;;;;;;8322848;28;20276;-60
2023/06/15 03:41:17;;;;;;;2.00;1.90;;;;;;;;;;8324352;28;20067;-60
2023/06/15 03:45:20;;;;;;;4.40;1.80;;;;;;;;;;8319266;28;20238;-60
2023/06/15 03:49:20;;;;;;;3.27;1.93;;;;;;;;;;8317537;28;20283;-60
2023/06/15 03:53:20;;;;;;;1.63;1.50;;;;;;;;;;8321096;28;20037;-60
2023/06/15 03:57:21;;;;;;;2.00;1.73;;;;;;;;;;8322812;28;20025;-60
2023/06/15 04:01:22;;;;;;;2.67;1.93;;;;;;;;;;8321830;28;20682;-60
2023/06/15 04:05:22;;;;;;;1.90;1.80;;;;;;;;;;8322881;28;20348;-60
2023/06/15 04:09:22;;;;;;;1.73;1.63;;;;;;;;;;8321159;28;20037;-60
2023/06/15 04:13:23;;;;;;;2.30;1.88;;;;;;;;;;8322245;28;20636;-60
2023/06/15 04:17:23;;;;;;;3.08;1.90;;;;;;;;;;8321159;28;20076;-60
2023/06/15 04:21:23;;;;;;;1.97;1.70;;;;;;;;;;8320358;28;20627;-60
2023/06/15 04:25:27;;;;;;;3.93;1.70;;;;;;;;;;8318521;28;20279;-60
2023/06/15 04:29:30;;;;;;;2.40;1.88;;;;;;;;;;8322139;28;20293;-63
2023/06/15 04:33:30;;;;;;;3.33;1.70;;;;;;;;;;8320224;28;20562;-60
2023/06/15 04:37:32;;;;;;;2.63;1.88;;;;;;;;;;8319875;28;20720;-60
2023/06/15 04:41:32;;;;;;;3.30;1.90;;;;;;;;;;8321129;28;20033;-60
2023/06/15 04:45:32;;;;;;;3.58;2.05;;;;;;;;;;8320532;28;20983;-60
2023/06/15 04:49:33;;;;;;;1.90;1.63;;;;;;;;;;8320304;28;20017;-60
2023/06/15 04:53:33;;;;;;;1.73;1.63;;;;;;;;;;8316188;28;20140;-59
2023/06/15 04:57:33;;;;;;;2.10;1.90;;;;;;;;;;8318010;28;20025;-60
2023/06/15 05:01:34;;;;;;;3.60;1.95;;;;;;;;;;8311986;28;20037;-60
2023/06/15 05:05:34;;;;;;;1.92;1.83;;;;;;;;;;8317441;28;20477;-59
2023/06/15 05:09:34;;;;;;;1.90;1.80;;;;;;;;;;8321572;28;20025;-60
2023/06/15 05:13:34;;;;;;;2.10;1.90;;;;;;;;;;8318026;28;20085;-60
2023/06/15 05:17:35;;;;;;;4.65;2.28;;;;;;;;;;8320476;28;20132;-60
2023/06/15 05:21:36;;;;;;;3.60;2.10;;;;;;;;;;8315508;28;20021;-60
2023/06/15 05:25:36;;;;;;;2.33;2.00;;;;;;;;;;8320033;28;20040;-60
2023/06/15 05:29:36;;;;;;;2.28;2.08;;;;;;;;;;8320005;28;20744;-61
2023/06/15 05:33:36;;;;;;;3.20;2.05;;;;;;;;;;8314920;28;20044;-60
2023/06/15 05:37:37;;;;;;;3.37;1.97;;;;;;;;;;8320106;28;20470;-60
2023/06/15 05:41:37;;;;;;;2.05;1.90;;;;;;;;;;8316779;28;20028;-59
2023/06/15 05:45:38;;;;;;;3.27;2.20;;;;;;;;;;8312523;28;20430;-59
2023/06/15 05:49:38;;;;;;;4.28;1.98;;;;;;;;;;8311259;28;20021;-59
2023/06/15 05:53:38;;;;;;;2.05;1.90;;;;;;;;;;8316304;28;20254;-60
2023/06/15 05:57:39;;;;;;;3.28;1.73;;;;;;;;;;8306859;28;20099;-60
2023/06/15 06:01:39;;;;;;;3.23;1.90;;;;;;;;;;8305884;28;20033;-60
2023/06/15 06:05:39;;;;;;;4.95;2.20;;;;;;;;;;8306270;28;20314;-59
2023/06/15 06:09:40;;;;;;;4.22;1.90;;;;;;;;;;8306065;28;20444;-59
2023/06/15 06:13:40;;;;;;;3.97;1.90;;;;;;;;;;8305897;28;20025;-59
2023/06/15 06:17:41;;;;;;;4.45;2.00;;;;;;;;;;8305185;28;20029;-59
2023/06/15 06:21:41;;;;;;;3.95;1.95;;;;;;;;;;8306654;28;20267;-59
2023/06/15 06:25:41;;;;;;;2.55;1.73;;;;;;;;;;8306523;28;20043;-59
2023/06/15 06:29:41;;;;;;;5.85;2.17;;;;;;;;;;8306710;28;20570;-59
2023/06/15 06:33:42;;;;;;;2.00;1.80;;;;;;;;;;8303378;28;20076;-59
2023/06/15 06:37:42;;;;;;;3.67;2.15;;;;;;;;;;8307599;28;20027;-60
2023/06/15 06:41:42;;;;;;;1.98;1.70;;;;;;;;;;8304714;28;20568;-59
2023/06/15 06:45:42;;;;;;;2.47;1.80;;;;;;;;;;8305615;28;20041;-60
2023/06/15 06:49:43;;;;;;;2.45;1.85;;;;;;;;;;8310678;28;20024;-59
2023/06/15 06:53:44;;;;;;;1.98;1.80;;;;;;;;;;8314283;28;20101;-59
2023/06/15 06:57:44;;;;;;;2.55;1.70;;;;;;;;;;8315741;28;20060;-60
2023/06/15 07:01:44;;;;;;;8.02;1.80;;;;;;;;;;8318028;28;20140;-60
2023/06/15 07:05:45;;;;;;;2.95;2.00;;;;;;;;;;8322624;28;20029;-59
2023/06/15 07:09:45;;;;;;;2.60;1.90;;;;;;;;;;8315075;28;20028;-59
2023/06/15 07:13:48;;;;;;;3.40;1.80;;;;;;;;;;8313756;28;20090;-59
2023/06/15 07:17:49;;;;;;;3.05;1.80;;;;;;;;;;8320000;28;20044;-60
2023/06/15 07:21:49;;;;;;;1.85;1.70;;;;;;;;;;8320175;28;20017;-59
2023/06/15 07:25:50;;;;;;;2.47;2.00;;;;;;;;;;8319572;28;20032;-59
2023/06/15 07:29:50;;;;;;;2.33;1.70;;;;;;;;;;8320546;28;20023;-60
2023/06/15 07:33:53;;;;;;;1.98;1.75;;;;;;;;;;8319213;28;20029;-60
2023/06/15 07:37:53;;;;;;;2.78;1.90;;;;;;;;;;8321070;28;20820;-60
2023/06/15 07:41:54;;;;;;;1.97;1.80;;;;;;;;;;8321098;28;20017;-60
2023/06/15 07:45:54;;;;;;;3.10;1.90;;;;;;;;;;8316937;28;20650;-60
2023/06/15 07:49:54;;;;;;;3.20;1.90;;;;;;;;;;8318787;28;20095;-60
2023/06/15 07:53:54;;;;;;;2.13;1.80;;;;;;;;;;8317598;28;20542;-59
2023/06/15 07:57:55;;;;;;;3.00;2.00;;;;;;;;;;8320780;28;20033;-60
2023/06/15 08:01:55;;;;;;;2.73;2.07;;;;;;;;;;8317677;28;20568;-60
2023/06/15 08:05:55;;;;;;;2.42;2.00;;;;;;;;;;8315968;28;20283;-59
2023/06/15 08:09:56;;;;;;;3.38;2.10;;;;;;;;;;8317865;28;20025;-60
2023/06/15 08:13:56;;;;;;;8.13;2.05;;;;;;;;;;8313574;28;20024;-60
2023/06/15 08:17:56;;;;;;;3.50;2.20;;;;;;;;;;8309630;28;20134;-60
2023/06/15 08:21:56;;;;;;;2.40;2.20;;;;;;;;;;8315793;28;20822;-59
2023/06/15 08:25:57;;;;;;;2.30;2.10;;;;;;;;;;8315506;28;20086;-62
2023/06/15 08:29:57;;;;;;;3.38;2.10;;;;;;;;;;8316216;28;20025;-60
2023/06/15 08:33:57;;;;;;;2.37;2.07;;;;;;;;;;8312831;28;20120;-59
2023/06/15 08:37:57;;;;;;;2.55;2.05;;;;;;;;;;8314630;28;20548;-59
2023/06/15 08:41:58;;;;;;;2.78;2.33;;;;;;;;;;8316008;28;20477;-60
2023/06/15 08:45:58;;;;;;;1.97;1.80;;;;;;;;;;8316208;28;20064;-60
2023/06/15 08:50:06;;;;;;;5.60;2.00;;;;;;;;;;8315932;28;20059;-60
2023/06/15 08:54:08;;;;;;;2.35;2.10;;;;;;;;;;8315471;28;20025;-59
2023/06/15 08:58:08;;;;;;;;;;;;;;;;;;8315812;28;20064;-59
2023/06/15 09:02:12;;;;;;;2.30;2.10;;;;;;;;;;8316060;28;19924;-59
2023/06/15 09:06:13;;;;;;;7.75;2.28;;;;;;;;;;8315033;28;20033;-59
2023/06/15 09:10:13;;;;;;;2.05;1.83;;;;;;;;;;8313938;28;20159;-60
2023/06/15 09:14:13;;;;;;;3.50;1.97;;;;;;;;;;8312372;28;20021;-60
2023/06/15 09:18:14;;;;;;;3.00;1.90;;;;;;;;;;8312530;28;20670;-59
2023/06/15 09:22:14;;;;;;;5.18;1.90;;;;;;;;;;8315846;28;20043;-60
2023/06/15 09:26:25;;;;;;;2.63;2.20;;;;;;;;;;8315997;28;20525;-60
2023/06/15 09:30:30;;;;;;;3.83;1.90;;;;;;;;;;8310551;28;20037;-60
2023/06/15 09:34:30;;;;;;;2.58;1.92;;;;;;;;;;8315851;28;20036;-60
2023/06/15 09:38:32;;;;;;;3.38;1.90;;;;;;;;;;8312407;28;20057;-59
2023/06/15 09:42:34;;;;;;;2.00;1.80;;;;;;;;;;8311669;28;20874;-60
2023/06/15 09:46:35;;;;;;;1.75;1.65;;;;;;;;;;8311264;28;20060;-60
2023/06/15 09:50:35;;;;;;;2.10;1.90;;;;;;;;;;8316726;28;20044;-60
2023/06/15 09:54:35;;;;;;;3.75;1.70;;;;;;;;;;8313275;28;20219;-59
2023/06/15 09:58:35;;;;;;;2.97;1.63;;;;;;;;;;8313610;28;20414;-59
2023/06/15 10:02:36;;;;;;;3.83;1.80;;;;;;;;;;8313746;28;20115;-59
2023/06/15 10:06:37;;;;;;;2.03;1.70;;;;;;;;;;8313011;28;20037;-59
2023/06/15 10:10:41;;;;;;;4.03;1.48;;;;;;;;;;8314578;28;20024;-60
2023/06/15 10:14:45;;;;;;;3.50;2.00;;;;;;;;;;8315396;28;20016;-60
2023/06/15 10:18:48;;;;;;;2.78;1.70;;;;;;;;;;8308109;28;20025;-60
2023/06/15 10:23:04;;;;;;;2.55;1.60;;;;;;;;;;8311848;28;20021;-59
2023/06/15 10:27:05;;;;;;;1.60;1.50;;;;;;;;;;8311608;28;20075;-59
2023/06/15 10:31:15;;;;;;;4.03;1.98;;;;;;;;;;8310278;28;20943;-60
2023/06/15 10:35:37;;;;;;;4.03;1.70;;;;;;;;;;8315240;28;20047;-60
2023/06/15 10:39:44;;;;;;;3.08;1.65;;;;;;;;;;8310563;28;20044;-60
2023/06/15 10:43:58;;;;;;;2.08;1.65;;;;;;;;;;8310929;28;20386;-60
2023/06/15 10:47:59;;;;;;;1.70;1.60;;;;;;;;;;8311990;28;20795;-59
2023/06/15 10:52:01;;;;;;;2.22;1.67;;;;;;;;;;8310899;28;20497;-59
2023/06/15 10:56:01;;;;;;;;;;;;;;;;;;8312370;28;20106;-59
2023/06/15 11:00:04;;;;;;;1.70;1.60;;;;;;;;;;8309457;28;19948;-59
2023/06/15 11:04:28;;;;;;;2.63;1.70;;;;;;;;;;8311630;28;20833;-60
2023/06/15 11:08:32;;;;;;;3.00;1.60;;;;;;;;;;8307018;28;20055;-59
2023/06/15 11:12:36;;;;;;;2.20;1.58;;;;;;;;;;8310559;28;20478;-59
2023/06/15 11:16:37;;;;;;;2.95;1.50;;;;;;;;;;8310100;28;20142;-59
2023/06/15 11:20:42;;;;;;;2.50;1.60;;;;;;;;;;8312089;28;20033;-60
2023/06/15 11:24:44;;;;;;;1.55;1.45;;;;;;;;;;8311231;28;20605;-60
2023/06/15 11:28:45;;;;;;;1.77;1.67;;;;;;;;;;8315347;28;20094;-59
2023/06/15 11:32:45;;;;;;;2.40;1.63;;;;;;;;;;8308154;28;20680;-60
2023/06/15 11:36:45;;;;;;;3.47;2.10;;;;;;;;;;8310326;28;20048;-60
2023/06/15 11:40:47;;;;;;;2.07;1.77;;;;;;;;;;8309917;28;20462;-60
2023/06/15 11:44:49;;;;;;;4.25;1.70;;;;;;;;;;8315711;28;20187;-60
2023/06/15 11:48:57;;;;;;;1.70;1.60;;;;;;;;;;8313322;28;20040;-60
2023/06/15 11:52:59;;;;;;;2.50;1.60;;;;;;;;;;8311816;28;20052;-60
2023/06/15 11:57:00;;;;;;;1.60;1.50;;;;;;;;;;8315081;28;20028;-60
2023/06/15 12:01:01;;;;;;;1.97;1.70;;;;;;;;;;8318411;28;20068;-60
2023/06/15 12:05:02;;;;;;;2.07;1.60;;;;;;;;;;8315610;28;20112;-60
2023/06/15 12:09:03;;;;;;;;;;;;;;;;;;8305888;28;20021;-60
2023/06/15 12:13:10;;;;;;;2.70;1.60;;;;;;;;;;8320902;28;19946;-60
2023/06/15 12:17:10;;;;;;;2.25;1.60;;;;;;;;;;8313662;28;20040;-60
2023/06/15 12:21:10;;;;;;;2.23;1.60;;;;;;;;;;8317299;28;20569;-60
2023/06/15 12:25:11;;;;;;;2.17;1.57;;;;;;;;;;8312971;28;20043;-60
2023/06/15 12:29:15;;;;;;;2.90;1.60;;;;;;;;;;8315435;28;20017;-59
2023/06/15 12:33:25;;;;;;;1.98;1.80;;;;;;;;;;8314609;28;20066;-60
2023/06/15 12:37:28;;;;;;;2.25;1.73;;;;;;;;;;8315741;28;20025;-60
2023/06/15 12:41:28;;;;;;;2.28;1.90;;;;;;;;;;8315544;28;20028;-60
2023/06/15 12:45:28;;;;;;;2.75;1.70;;;;;;;;;;8312032;28;20047;-60
2023/06/15 12:49:29;;;;;;;2.97;1.70;;;;;;;;;;8308303;28;20029;-60
2023/06/15 12:53:29;;;;;;;5.20;1.80;;;;;;;;;;8306821;28;20025;-60
2023/06/15 12:57:30;;;;;;;1.93;1.70;;;;;;;;;;8309836;28;20667;-60
2023/06/15 13:01:31;;;;;;;4.40;1.80;;;;;;;;;;8311713;28;20488;-60
2023/06/15 13:05:31;;;;;;;2.47;1.90;;;;;;;;;;8311210;28;20033;-60
2023/06/15 13:09:32;;;;;;;2.00;1.80;;;;;;;;;;8311884;28;20086;-60
2023/06/15 13:13:32;;;;;;;1.60;1.50;;;;;;;;;;8315919;28;20032;-59
2023/06/15 13:17:35;;;;;;;2.30;1.70;;;;;;;;;;8307437;28;20032;-60
2023/06/15 13:21:35;;;;;;;3.33;1.80;;;;;;;;;;8303625;28;20328;-60
2023/06/15 13:25:36;;;;;;;2.03;1.90;;;;;;;;;;8306005;28;20175;-60
2023/06/15 13:29:36;;;;;;;2.78;1.77;;;;;;;;;;8306512;28;20017;-60
2023/06/15 13:33:38;;;;;;;1.97;1.70;;;;;;;;;;8307585;28;20037;-60
2023/06/15 13:37:39;;;;;;;2.03;1.83;;;;;;;;;;8312413;28;20771;-60
2023/06/15 13:41:40;;;;;;;3.10;1.80;;;;;;;;;;8312900;28;20031;-60
2023/06/15 13:45:40;;;;;;;3.47;2.07;;;;;;;;;;8305011;28;20029;-60
2023/06/15 13:49:41;;;;;;;4.60;2.00;;;;;;;;;;8309003;28;20017;-59
2023/06/15 13:53:41;;;;;;;2.17;1.80;;;;;;;;;;8302364;28;20597;-59
2023/06/15 13:57:41;;;;;;;2.03;1.83;;;;;;;;;;8299986;28;20094;-60
2023/06/15 14:01:42;;;;;;;3.90;1.90;;;;;;;;;;8302006;28;20191;-60
2023/06/15 14:05:42;;;;;;;2.63;1.90;;;;;;;;;;8303067;28;20024;-60
2023/06/15 14:09:43;;;;;;;2.17;1.97;;;;;;;;;;8299322;28;20969;-61
2023/06/15 14:13:50;;;;;;;3.27;1.70;;;;;;;;;;8307018;28;20029;-62
2023/06/15 14:17:50;;;;;;;3.10;2.10;;;;;;;;;;8310562;28;20045;-60
2023/06/15 14:21:51;;;;;;;2.03;1.80;;;;;;;;;;8306137;28;20623;-60
2023/06/15 14:25:51;;;;;;;2.53;1.90;;;;;;;;;;8300556;28;20035;-59
2023/06/15 14:29:51;;;;;;;2.40;1.80;;;;;;;;;;8301402;28;20533;-60
2023/06/15 14:33:51;;;;;;;7.47;1.80;;;;;;;;;;8304774;28;20345;-60
2023/06/15 14:37:51;;;;;;;2.08;1.77;;;;;;;;;;8305478;28;20372;-60
2023/06/15 14:41:52;;;;;;;2.90;1.90;;;;;;;;;;8303690;28;20543;-60
2023/06/15 14:45:52;;;;;;;4.30;1.90;;;;;;;;;;8302701;28;21268;-60
2023/06/15 14:49:52;;;;;;;2.58;2.00;;;;;;;;;;8302705;28;20021;-60
2023/06/15 14:53:52;;;;;;;6.28;1.80;;;;;;;;;;8305489;28;20104;-60
2023/06/15 14:57:52;;;;;;;3.03;2.03;;;;;;;;;;8305642;28;20166;-60
2023/06/15 15:01:53;;;;;;;3.72;2.00;;;;;;;;;;8301395;28;20284;-60
2023/06/15 15:05:53;;;;;;;2.55;1.90;;;;;;;;;;8303658;28;20360;-60
2023/06/15 15:09:53;;;;;;;3.40;1.80;;;;;;;;;;8307272;28;20028;-60
2023/06/15 15:13:57;;;;;;;4.35;1.90;;;;;;;;;;8303191;28;20118;-60
2023/06/15 15:17:57;;;;;;;3.00;1.83;;;;;;;;;;8307884;28;20041;-60
2023/06/15 15:21:57;;;;;;;2.03;1.83;;;;;;;;;;8314046;28;20112;-60
2023/06/15 15:25:58;;;;;;;4.47;2.10;;;;;;;;;;8314466;28;20493;-60
2023/06/15 15:29:58;;;;;;;4.40;1.90;;;;;;;;;;8314276;28;20033;-60
2023/06/15 15:33:58;;;;;;;3.17;1.98;;;;;;;;;;8317659;28;20072;-60
2023/06/15 15:37:58;;;;;;;5.43;2.10;;;;;;;;;;8323568;28;20114;-60
2023/06/15 15:41:59;;;;;;;2.60;1.97;;;;;;;;;;8321374;28;20021;-60
2023/06/15 15:46:00;;;;;;;5.85;2.20;;;;;;;;;;8317564;28;20037;-60
2023/06/15 15:50:00;;;;;;;4.45;2.22;;;;;;;;;;8318316;28;20068;-60
2023/06/15 15:54:00;;;;;;;3.40;2.30;;;;;;;;;;8316345;28;20717;-61
2023/06/15 15:58:01;;;;;;;3.70;2.03;;;;;;;;;;8314260;28;20040;-62
2023/06/15 16:02:06;;;;;;;5.13;2.53;;;;;;;;;;8308892;28;21146;-62
2023/06/15 16:06:06;;;;;;;4.72;2.10;;;;;;;;;;8311901;28;20340;-62
2023/06/15 16:10:07;;;;;;;2.65;2.20;;;;;;;;;;8305247;28;20025;-62
2023/06/15 16:14:07;;;;;;;5.50;2.25;;;;;;;;;;8311846;28;20032;-62
2023/06/15 16:18:07;;;;;;;2.60;2.20;;;;;;;;;;8313012;28;20037;-62
2023/06/15 16:22:07;;;;;;;4.43;2.20;;;;;;;;;;8311256;28;20967;-62
2023/06/15 16:26:07;;;;;;;4.03;2.00;;;;;;;;;;8312035;28;20025;-61
2023/06/15 16:30:08;;;;;;;3.55;2.13;;;;;;;;;;8312271;28;20025;-62
2023/06/15 16:34:08;;;;;;;5.40;2.10;;;;;;;;;;8311245;28;20108;-62
2023/06/15 16:38:08;;;;;;;3.08;2.10;;;;;;;;;;8307484;28;20344;-62
2023/06/15 16:42:09;;;;;;;3.58;2.20;;;;;;;;;;8313502;28;20307;-62
2023/06/15 16:46:09;;;;;;;5.65;2.08;;;;;;;;;;8311429;28;20496;-62
2023/06/15 16:50:10;;;;;;;3.40;2.23;;;;;;;;;;8307048;28;20552;-62
2023/06/15 16:54:10;;;;;;;4.00;2.17;;;;;;;;;;8303981;28;20025;-62
2023/06/15 16:58:10;;;;;;;2.53;2.33;;;;;;;;;;8305620;28;20112;-62
2023/06/15 17:02:14;;;;;;;4.25;2.28;;;;;;;;;;8306545;28;20098;-62
2023/06/15 17:06:15;;;;;;;4.93;2.50;;;;;;;;;;8306727;28;20144;-62
2023/06/15 17:10:15;;;;;;;5.15;2.33;;;;;;;;;;8307969;28;20017;-62
2023/06/15 17:14:15;;;;;;;2.30;2.10;;;;;;;;;;8308247;28;20501;-62
2023/06/15 17:18:15;;;;;;;4.73;2.13;;;;;;;;;;8308150;28;20087;-62
2023/06/15 17:22:16;;;;;;;3.80;1.90;;;;;;;;;;8305456;28;20286;-62
2023/06/15 17:26:16;;;;;;;3.60;2.08;;;;;;;;;;8301166;28;20479;-62
2023/06/15 17:30:18;;;;;;;2.22;2.10;;;;;;;;;;8315117;28;20021;-62
2023/06/15 17:34:18;;;;;;;5.53;2.40;;;;;;;;;;8313002;28;20035;-62
2023/06/15 17:38:18;;;;;;;2.93;1.93;;;;;;;;;;8312463;28;20026;-62
2023/06/15 17:42:18;;;;;;;2.53;2.20;;;;;;;;;;8313460;28;20062;-62
2023/06/15 17:46:19;;;;;;;2.60;2.00;;;;;;;;;;8313384;28;20706;-62
2023/06/15 17:50:19;;;;;;;4.63;2.10;;;;;;;;;;8313841;28;20136;-62
2023/06/15 17:54:19;;;;;;;3.75;2.00;;;;;;;;;;8315933;28;20031;-62
2023/06/15 17:58:20;;;;;;;2.30;2.10;;;;;;;;;;8314421;28;20615;-62
2023/06/15 18:02:20;;;;;;;2.70;2.30;;;;;;;;;;8311338;28;20039;-62
2023/06/15 18:06:21;;;;;;;5.43;2.00;;;;;;;;;;8312089;28;20353;-62
2023/06/15 18:10:21;;;;;;;2.55;2.33;;;;;;;;;;8313150;28;20587;-62
2023/06/15 18:14:23;;;;;;;3.10;2.13;;;;;;;;;;8312777;28;20035;-62
2023/06/15 18:18:23;;;;;;;3.78;2.15;;;;;;;;;;8313893;28;20324;-62
2023/06/15 18:22:23;;;;;;;2.20;1.90;;;;;;;;;;8310679;28;20029;-62
2023/06/15 18:26:23;;;;;;;3.45;2.30;;;;;;;;;;8312662;28;20102;-62
2023/06/15 18:30:24;;;;;;;3.80;2.22;;;;;;;;;;8310400;28;20037;-62
2023/06/15 18:34:24;;;;;;;2.60;1.90;;;;;;;;;;8315669;28;20025;-62
2023/06/15 18:38:26;;;;;;;2.88;2.20;;;;;;;;;;8312028;28;20064;-62
2023/06/15 18:42:26;;;;;;;2.83;2.03;;;;;;;;;;8313064;28;20048;-62
2023/06/15 18:46:26;;;;;;;3.45;2.00;;;;;;;;;;8310887;28;20325;-62
2023/06/15 18:50:27;;;;;;;4.90;2.08;;;;;;;;;;8309424;28;20029;-62
2023/06/15 18:54:27;;;;;;;3.47;2.10;;;;;;;;;;8314426;28;20108;-61
2023/06/15 18:58:28;;;;;;;3.70;2.33;;;;;;;;;;8310373;28;20628;-62
2023/06/15 19:02:28;;;;;;;4.10;2.30;;;;;;;;;;8307670;28;20048;-62
2023/06/15 19:06:28;;;;;;;3.33;2.30;;;;;;;;;;8312465;28;20765;-62
2023/06/15 19:10:28;;;;;;;2.50;2.22;;;;;;;;;;8308797;28;20420;-62
2023/06/15 19:14:35;;;;;;;3.45;2.20;;;;;;;;;;8307827;28;20099;-62
2023/06/15 19:18:35;;;;;;;3.45;2.20;;;;;;;;;;8312018;28;20041;-62
2023/06/15 19:22:36;;;;;;;3.00;2.30;;;;;;;;;;8308411;28;20029;-61
2023/06/15 19:26:37;;;;;;;3.33;2.28;;;;;;;;;;8310439;28;20033;-62
2023/06/15 19:30:37;;;;;;;4.93;2.17;;;;;;;;;;8315516;28;20184;-62
2023/06/15 19:34:38;;;;;;;2.43;2.23;;;;;;;;;;8308419;28;20020;-62
2023/06/15 19:38:38;;;;;;;3.05;2.30;;;;;;;;;;8317093;28;20549;-62
2023/06/15 19:42:40;;;;;;;2.63;2.42;;;;;;;;;;8316695;28;20628;-61
2023/06/15 19:46:40;;;;;;;4.85;2.53;;;;;;;;;;8318173;28;20033;-62
2023/06/15 19:50:40;;;;;;;6.80;2.35;;;;;;;;;;8312728;28;20036;-61
2023/06/15 19:54:40;;;;;;;10.00;2.50;;;;;;;;;;8312114;28;20080;-61
2023/06/15 19:58:41;;;;;;;6.47;2.47;;;;;;;;;;8314963;28;20017;-62
2023/06/15 20:02:42;;;;;;;2.50;2.20;;;;;;;;;;8314807;28;20037;-61
2023/06/15 20:06:42;;;;;;;2.83;2.42;;;;;;;;;;8315393;28;20017;-62
2023/06/15 20:10:43;;;;;;;3.58;2.25;;;;;;;;;;8317885;28;20115;-61
2023/06/15 20:14:44;;;;;;;3.83;2.20;;;;;;;;;;8313716;28;20132;-62
2023/06/15 20:18:45;;;;;;;6.57;2.42;;;;;;;;;;8314947;28;20776;-61
2023/06/15 20:22:45;;;;;;;4.80;2.55;;;;;;;;;;8313169;28;20501;-61
2023/06/15 20:26:46;;;;;;;8.55;2.40;;;;;;;;;;8313944;28;20138;-62
2023/06/15 20:30:46;;;;;;;8.77;2.50;;;;;;;;;;8316320;28;20037;-61
2023/06/15 20:34:46;;;;;;;4.85;2.28;;;;;;;;;;8317606;28;20082;-61
2023/06/15 20:38:47;;;;;;;7.45;2.60;;;;;;;;;;8314000;28;20053;-61
2023/06/15 20:42:47;;;;;;;6.05;2.70;;;;;;;;;;8318493;28;20029;-62
2023/06/15 20:46:47;;;;;;;6.18;2.50;;;;;;;;;;8317919;28;20044;-61
2023/06/15 20:50:48;;;;;;;7.85;2.42;;;;;;;;;;8316176;28;20025;-61
2023/06/15 20:54:48;;;;;;;5.25;2.40;;;;;;;;;;8311354;28;20045;-61
2023/06/15 20:58:48;;;;;;;7.32;2.30;;;;;;;;;;8315617;28;20095;-61
2023/06/15 21:02:48;;;;;;;4.82;2.80;;;;;;;;;;8315967;28;20052;-61
2023/06/15 21:06:48;;;;;;;4.40;2.65;;;;;;;;;;8314475;28;20128;-62
2023/06/15 21:10:49;;;;;;;7.70;2.60;;;;;;;;;;8313292;28;20021;-61
2023/06/15 21:14:49;;;;;;;3.87;2.60;;;;;;;;;;8314816;28;20024;-61
2023/06/15 21:18:49;;;;;;;7.68;2.60;;;;;;;;;;8313188;28;20051;-61
2023/06/15 21:22:49;;;;;;;6.55;2.72;;;;;;;;;;8305115;28;20144;-62
2023/06/15 21:26:50;;;;;;;5.18;2.80;;;;;;;;;;8308041;28;20025;-61
2023/06/15 21:30:50;;;;;;;5.60;2.65;;;;;;;;;;8313775;28;20032;-61
2023/06/15 21:34:50;;;;;;;7.57;2.33;;;;;;;;;;8302945;28;20953;-61
2023/06/15 21:38:51;;;;;;;3.17;2.28;;;;;;;;;;8312942;28;20048;-61
2023/06/15 21:42:51;;;;;;;4.80;2.30;;;;;;;;;;8315340;28;20760;-61
2023/06/15 21:46:51;;;;;;;4.90;2.50;;;;;;;;;;8312932;28;20521;-61
2023/06/15 21:50:51;;;;;;;4.95;2.38;;;;;;;;;;8317395;28;20029;-61
2023/06/15 21:54:51;;;;;;;4.05;2.80;;;;;;;;;;8313373;28;21079;-62
2023/06/15 21:58:52;;;;;;;4.53;2.20;;;;;;;;;;8319660;28;20496;-61
2023/06/15 22:02:52;;;;;;;5.63;2.65;;;;;;;;;;8309059;28;20048;-61
2023/06/15 22:06:52;;;;;;;3.58;2.40;;;;;;;;;;8309119;28;20104;-61
2023/06/15 22:10:52;;;;;;;2.97;2.60;;;;;;;;;;8313144;28;20115;-62
2023/06/15 22:14:52;;;;;;;3.00;2.70;;;;;;;;;;8316089;28;20099;-61
2023/06/15 22:18:53;;;;;;;4.10;2.50;;;;;;;;;;8313505;28;20540;-61
2023/06/15 22:22:53;;;;;;;2.97;2.50;;;;;;;;;;8313423;28;20895;-62
2023/06/15 22:26:53;;;;;;;4.85;2.80;;;;;;;;;;8309555;28;20032;-61
2023/06/15 22:30:53;;;;;;;4.72;2.85;;;;;;;;;;8306720;28;20170;-61
2023/06/15 22:34:54;;;;;;;5.07;2.78;;;;;;;;;;8313949;28;20055;-61
2023/06/15 22:38:54;;;;;;;3.00;2.70;;;;;;;;;;8316110;28;20032;-61
2023/06/15 22:42:54;;;;;;;3.80;2.70;;;;;;;;;;8315044;28;20021;-62
2023/06/15 22:46:55;;;;;;;5.27;2.40;;;;;;;;;;8315861;28;20186;-61
2023/06/15 22:50:56;;;;;;;2.60;2.40;;;;;;;;;;8318041;28;20033;-61
2023/06/15 22:54:56;;;;;;;4.78;2.45;;;;;;;;;;8314506;28;20150;-61
2023/06/15 22:58:56;;;;;;;5.95;2.65;;;;;;;;;;8311326;28;20025;-61
2023/06/15 23:02:56;;;;;;;5.13;2.65;;;;;;;;;;8315793;28;20060;-61
2023/06/15 23:06:57;;;;;;;5.18;2.97;;;;;;;;;;8312548;28;20071;-61
2023/06/15 23:10:57;;;;;;;3.25;2.60;;;;;;;;;;8313823;28;20025;-61
2023/06/15 23:14:58;;;;;;;5.37;2.80;;;;;;;;;;8315759;28;20025;-61
2023/06/15 23:18:58;;;;;;;4.03;2.75;;;;;;;;;;8313306;28;20029;-61
2023/06/15 23:22:58;;;;;;;3.75;2.63;;;;;;;;;;8315075;28;20357;-61
2023/06/15 23:26:59;;;;;;;3.60;2.60;;;;;;;;;;8314217;28;20638;-61
2023/06/15 23:31:00;;;;;;;2.83;2.60;;;;;;;;;;8313860;28;20033;-61
2023/06/15 23:35:00;;;;;;;2.95;2.60;;;;;;;;;;8315725;28;20028;-61
2023/06/15 23:39:01;;;;;;;4.57;2.72;;;;;;;;;;8315250;28;20057;-61
2023/06/15 23:43:01;;;;;;;2.83;2.60;;;;;;;;;;8319240;28;20091;-61
2023/06/15 23:47:02;;;;;;;2.90;2.45;;;;;;;;;;8323200;28;20799;-61
2023/06/15 23:51:02;;;;;;;2.97;2.53;;;;;;;;;;8320669;28;20126;-61
2023/06/15 23:55:02;;;;;;;3.97;2.53;;;;;;;;;;8321960;28;20106;-61
2023/06/15 23:59:03;;;;;;;2.92;2.40;;;;;;;;;;8319747;28;20370;-61
